sensor_id;sensor_type;location;lat;lon;timestamp;temperature;humidity
86305;DHT22;76964;49.316;7.118;2024-03-08T00:00:32;17.60;73.00
86305;DHT22;76964;49.316;7.118;2024-03-08T00:03:01;17.60;73.20
86305;DHT22;76964;49.316;7.118;2024-03-08T00:05:29;17.60;73.40
86305;DHT22;76964;49.316;7.118;2024-03-08T00:07:58;17.50;73.50
86305;DHT22;76964;49.316;7.118;2024-03-08T00:10:26;17.50;73.20
86305;DHT22;76964;49.316;7.118;2024-03-08T00:12:55;17.50;73.30
86305;DHT22;76964;49.316;7.118;2024-03-08T00:15:24;17.50;73.50
86305;DHT22;76964;49.316;7.118;2024-03-08T00:17:53;17.50;73.50
86305;DHT22;76964;49.316;7.118;2024-03-08T00:20:23;17.50;73.60
86305;DHT22;76964;49.316;7.118;2024-03-08T00:22:51;17.50;73.80
86305;DHT22;76964;49.316;7.118;2024-03-08T00:25:19;17.50;73.50
86305;DHT22;76964;49.316;7.118;2024-03-08T00:27:48;17.50;73.60
86305;DHT22;76964;49.316;7.118;2024-03-08T00:30:16;17.50;73.70
86305;DHT22;76964;49.316;7.118;2024-03-08T00:32:45;17.40;73.60
86305;DHT22;76964;49.316;7.118;2024-03-08T00:35:13;17.40;73.70
86305;DHT22;76964;49.316;7.118;2024-03-08T00:37:42;17.40;73.80
86305;DHT22;76964;49.316;7.118;2024-03-08T00:40:13;17.40;73.40
86305;DHT22;76964;49.316;7.118;2024-03-08T00:42:41;17.40;73.60
86305;DHT22;76964;49.316;7.118;2024-03-08T00:45:10;17.40;73.60
86305;DHT22;76964;49.316;7.118;2024-03-08T00:47:39;17.40;73.70
86305;DHT22;76964;49.316;7.118;2024-03-08T00:50:09;17.40;73.70
86305;DHT22;76964;49.316;7.118;2024-03-08T00:52:38;17.40;73.90
86305;DHT22;76964;49.316;7.118;2024-03-08T00:55:08;17.40;73.80
86305;DHT22;76964;49.316;7.118;2024-03-08T00:57:37;17.50;73.70
86305;DHT22;76964;49.316;7.118;2024-03-08T01:00:07;17.60;73.30
86305;DHT22;76964;49.316;7.118;2024-03-08T01:02:39;17.70;72.80
86305;DHT22;76964;49.316;7.118;2024-03-08T01:05:08;17.70;72.80
86305;DHT22;76964;49.316;7.118;2024-03-08T01:07:36;17.60;73.20
86305;DHT22;76964;49.316;7.118;2024-03-08T01:10:07;17.60;73.10
86305;DHT22;76964;49.316;7.118;2024-03-08T01:12:37;17.60;72.90
86305;DHT22;76964;49.316;7.118;2024-03-08T01:15:06;17.60;73.10
86305;DHT22;76964;49.316;7.118;2024-03-08T01:17:35;17.50;73.20
86305;DHT22;76964;49.316;7.118;2024-03-08T01:20:04;17.50;73.30
86305;DHT22;76964;49.316;7.118;2024-03-08T01:22:32;17.50;73.60
86305;DHT22;76964;49.316;7.118;2024-03-08T01:25:00;17.50;73.50
86305;DHT22;76964;49.316;7.118;2024-03-08T01:27:32;17.50;73.30
86305;DHT22;76964;49.316;7.118;2024-03-08T01:30:02;17.50;73.40
86305;DHT22;76964;49.316;7.118;2024-03-08T01:32:31;17.50;73.50
86305;DHT22;76964;49.316;7.118;2024-03-08T01:35:00;17.40;73.40
86305;DHT22;76964;49.316;7.118;2024-03-08T01:37:29;17.40;73.60
86305;DHT22;76964;49.316;7.118;2024-03-08T01:39:57;17.40;73.70
86305;DHT22;76964;49.316;7.118;2024-03-08T01:42:26;17.50;73.50
86305;DHT22;76964;49.316;7.118;2024-03-08T01:44:55;17.60;73.20
86305;DHT22;76964;49.316;7.118;2024-03-08T01:47:23;17.60;72.90
86305;DHT22;76964;49.316;7.118;2024-03-08T01:49:52;17.60;73.00
86305;DHT22;76964;49.316;7.118;2024-03-08T01:52:20;17.60;73.20
86305;DHT22;76964;49.316;7.118;2024-03-08T01:54:50;17.50;73.20
86305;DHT22;76964;49.316;7.118;2024-03-08T01:57:18;17.50;73.00
86305;DHT22;76964;49.316;7.118;2024-03-08T01:59:47;17.50;73.10
86305;DHT22;76964;49.316;7.118;2024-03-08T02:02:17;17.50;73.20
86305;DHT22;76964;49.316;7.118;2024-03-08T02:04:46;17.50;73.30
86305;DHT22;76964;49.316;7.118;2024-03-08T02:07:14;17.50;73.50
86305;DHT22;76964;49.316;7.118;2024-03-08T02:09:42;17.40;73.50
86305;DHT22;76964;49.316;7.118;2024-03-08T02:12:10;17.50;73.30
86305;DHT22;76964;49.316;7.118;2024-03-08T02:14:39;17.50;73.40
86305;DHT22;76964;49.316;7.118;2024-03-08T02:17:07;17.40;73.40
86305;DHT22;76964;49.316;7.118;2024-03-08T02:19:37;17.40;73.50
86305;DHT22;76964;49.316;7.118;2024-03-08T02:22:06;17.40;73.50
86305;DHT22;76964;49.316;7.118;2024-03-08T02:24:35;17.40;73.70
86305;DHT22;76964;49.316;7.118;2024-03-08T02:27:04;17.40;73.70
86305;DHT22;76964;49.316;7.118;2024-03-08T02:29:34;17.50;73.50
86305;DHT22;76964;49.316;7.118;2024-03-08T02:32:02;17.60;73.20
86305;DHT22;76964;49.316;7.118;2024-03-08T02:34:31;17.70;72.80
86305;DHT22;76964;49.316;7.118;2024-03-08T02:37:01;17.60;72.60
86305;DHT22;76964;49.316;7.118;2024-03-08T02:39:31;17.60;72.90
86305;DHT22;76964;49.316;7.118;2024-03-08T02:41:59;17.60;73.00
86305;DHT22;76964;49.316;7.118;2024-03-08T02:44:28;17.60;72.90
86305;DHT22;76964;49.316;7.118;2024-03-08T02:46:56;17.50;72.90
86305;DHT22;76964;49.316;7.118;2024-03-08T02:49:24;17.50;73.10
86305;DHT22;76964;49.316;7.118;2024-03-08T02:51:53;17.50;73.50
86305;DHT22;76964;49.316;7.118;2024-03-08T02:54:23;17.50;73.30
86305;DHT22;76964;49.316;7.118;2024-03-08T02:56:53;17.40;73.30
86305;DHT22;76964;49.316;7.118;2024-03-08T02:59:21;17.40;73.50
86305;DHT22;76964;49.316;7.118;2024-03-08T03:01:50;17.40;73.30
86305;DHT22;76964;49.316;7.118;2024-03-08T03:04:18;17.40;73.40
86305;DHT22;76964;49.316;7.118;2024-03-08T03:06:46;17.40;73.50
86305;DHT22;76964;49.316;7.118;2024-03-08T03:09:14;17.40;73.60
86305;DHT22;76964;49.316;7.118;2024-03-08T03:11:44;17.40;73.70
86305;DHT22;76964;49.316;7.118;2024-03-08T03:14:14;17.40;73.60
86305;DHT22;76964;49.316;7.118;2024-03-08T03:16:42;17.40;73.50
86305;DHT22;76964;49.316;7.118;2024-03-08T03:19:10;17.40;73.60
86305;DHT22;76964;49.316;7.118;2024-03-08T03:21:39;17.30;73.50
86305;DHT22;76964;49.316;7.118;2024-03-08T03:24:07;17.30;73.70
86305;DHT22;76964;49.316;7.118;2024-03-08T03:26:38;17.30;73.80
86305;DHT22;76964;49.316;7.118;2024-03-08T03:29:07;17.40;73.90
86305;DHT22;76964;49.316;7.118;2024-03-08T03:31:37;17.50;73.50
86305;DHT22;76964;49.316;7.118;2024-03-08T03:34:07;17.50;73.80
86305;DHT22;76964;49.316;7.118;2024-03-08T03:36:35;17.50;72.90
86305;DHT22;76964;49.316;7.118;2024-03-08T03:39:05;17.50;73.00
86305;DHT22;76964;49.316;7.118;2024-03-08T03:41:37;17.50;73.50
86305;DHT22;76964;49.316;7.118;2024-03-08T03:44:05;17.50;73.20
86305;DHT22;76964;49.316;7.118;2024-03-08T03:46:34;17.50;73.20
86305;DHT22;76964;49.316;7.118;2024-03-08T03:49:03;17.40;73.20
86305;DHT22;76964;49.316;7.118;2024-03-08T03:51:31;17.40;73.20
86305;DHT22;76964;49.316;7.118;2024-03-08T03:54:00;17.40;73.30
86305;DHT22;76964;49.316;7.118;2024-03-08T03:56:30;17.40;73.60
86305;DHT22;76964;49.316;7.118;2024-03-08T03:58:58;17.40;73.30
86305;DHT22;76964;49.316;7.118;2024-03-08T04:01:26;17.40;73.30
86305;DHT22;76964;49.316;7.118;2024-03-08T04:03:55;17.40;74.10
86305;DHT22;76964;49.316;7.118;2024-03-08T04:06:25;17.40;73.40
86305;DHT22;76964;49.316;7.118;2024-03-08T04:08:53;17.40;73.40
86305;DHT22;76964;49.316;7.118;2024-03-08T04:11:22;17.40;73.70
86305;DHT22;76964;49.316;7.118;2024-03-08T04:13:50;17.40;73.30
86305;DHT22;76964;49.316;7.118;2024-03-08T04:16:19;17.40;73.30
86305;DHT22;76964;49.316;7.118;2024-03-08T04:18:47;17.40;73.30
86305;DHT22;76964;49.316;7.118;2024-03-08T04:21:15;17.40;73.30
86305;DHT22;76964;49.316;7.118;2024-03-08T04:23:45;17.40;73.40
86305;DHT22;76964;49.316;7.118;2024-03-08T04:26:13;17.40;73.50
86305;DHT22;76964;49.316;7.118;2024-03-08T04:28:45;17.40;73.60
86305;DHT22;76964;49.316;7.118;2024-03-08T04:31:13;17.50;73.50
86305;DHT22;76964;49.316;7.118;2024-03-08T04:33:43;17.60;73.10
86305;DHT22;76964;49.316;7.118;2024-03-08T04:36:12;17.60;72.50
86305;DHT22;76964;49.316;7.118;2024-03-08T04:38:41;17.60;72.30
86305;DHT22;76964;49.316;7.118;2024-03-08T04:41:11;17.60;72.50
86305;DHT22;76964;49.316;7.118;2024-03-08T04:43:42;17.60;73.00
86305;DHT22;76964;49.316;7.118;2024-03-08T04:46:10;17.60;72.60
86305;DHT22;76964;49.316;7.118;2024-03-08T04:48:38;17.60;72.60
86305;DHT22;76964;49.316;7.118;2024-03-08T04:51:09;17.50;72.80
86305;DHT22;76964;49.316;7.118;2024-03-08T04:53:37;17.50;73.60
86305;DHT22;76964;49.316;7.118;2024-03-08T04:56:06;17.50;73.10
86305;DHT22;76964;49.316;7.118;2024-03-08T04:58:37;17.40;73.20
86305;DHT22;76964;49.316;7.118;2024-03-08T05:01:05;17.40;73.00
86305;DHT22;76964;49.316;7.118;2024-03-08T05:03:33;17.40;73.00
86305;DHT22;76964;49.316;7.118;2024-03-08T05:06:02;17.40;73.20
86305;DHT22;76964;49.316;7.118;2024-03-08T05:08:30;17.40;73.30
86305;DHT22;76964;49.316;7.118;2024-03-08T05:10:59;17.40;74.00
86305;DHT22;76964;49.316;7.118;2024-03-08T05:13:30;17.40;73.50
86305;DHT22;76964;49.316;7.118;2024-03-08T05:16:00;17.40;73.50
86305;DHT22;76964;49.316;7.118;2024-03-08T05:18:28;17.50;73.40
86305;DHT22;76964;49.316;7.118;2024-03-08T05:20:59;17.50;72.80
86305;DHT22;76964;49.316;7.118;2024-03-08T05:23:27;17.50;72.60
86305;DHT22;76964;49.316;7.118;2024-03-08T05:25:56;17.50;73.50
86305;DHT22;76964;49.316;7.118;2024-03-08T05:28:24;17.50;72.90
86305;DHT22;76964;49.316;7.118;2024-03-08T05:30:52;17.50;73.10
86305;DHT22;76964;49.316;7.118;2024-03-08T05:33:24;17.50;72.90
86305;DHT22;76964;49.316;7.118;2024-03-08T05:35:53;17.50;73.10
86305;DHT22;76964;49.316;7.118;2024-03-08T05:38:21;17.40;73.00
86305;DHT22;76964;49.316;7.118;2024-03-08T05:40:49;17.40;73.10
86305;DHT22;76964;49.316;7.118;2024-03-08T05:43:18;17.40;73.20
86305;DHT22;76964;49.316;7.118;2024-03-08T05:45:46;17.40;73.50
86305;DHT22;76964;49.316;7.118;2024-03-08T05:48:14;17.40;73.30
86305;DHT22;76964;49.316;7.118;2024-03-08T05:50:45;17.50;72.90
86305;DHT22;76964;49.316;7.118;2024-03-08T05:53:13;17.50;72.80
86305;DHT22;76964;49.316;7.118;2024-03-08T05:55:41;17.50;73.00
86305;DHT22;76964;49.316;7.118;2024-03-08T05:58:09;17.40;72.90
86305;DHT22;76964;49.316;7.118;2024-03-08T06:00:38;17.40;73.30
86305;DHT22;76964;49.316;7.118;2024-03-08T06:03:06;17.40;73.00
86305;DHT22;76964;49.316;7.118;2024-03-08T06:05:35;17.40;73.20
86305;DHT22;76964;49.316;7.118;2024-03-08T06:08:10;17.40;73.20
86305;DHT22;76964;49.316;7.118;2024-03-08T06:10:38;17.40;73.30
86305;DHT22;76964;49.316;7.118;2024-03-08T06:13:06;17.40;73.30
86305;DHT22;76964;49.316;7.118;2024-03-08T06:15:34;17.30;73.40
86305;DHT22;76964;49.316;7.118;2024-03-08T06:18:03;17.40;73.50
86305;DHT22;76964;49.316;7.118;2024-03-08T06:20:32;17.50;73.10
86305;DHT22;76964;49.316;7.118;2024-03-08T06:23:00;17.50;72.60
86305;DHT22;76964;49.316;7.118;2024-03-08T06:25:30;17.50;72.70
86305;DHT22;76964;49.316;7.118;2024-03-08T06:27:58;17.50;72.70
86305;DHT22;76964;49.316;7.118;2024-03-08T06:30:26;17.50;72.90
86305;DHT22;76964;49.316;7.118;2024-03-08T06:32:54;17.50;72.80
86305;DHT22;76964;49.316;7.118;2024-03-08T06:35:22;17.50;72.60
86305;DHT22;76964;49.316;7.118;2024-03-08T06:37:50;17.50;72.80
86305;DHT22;76964;49.316;7.118;2024-03-08T06:40:19;17.40;72.70
86305;DHT22;76964;49.316;7.118;2024-03-08T06:42:48;17.40;72.70
86305;DHT22;76964;49.316;7.118;2024-03-08T06:45:18;17.40;73.00
86305;DHT22;76964;49.316;7.118;2024-03-08T06:47:48;17.40;72.70
86305;DHT22;76964;49.316;7.118;2024-03-08T06:50:16;17.40;72.60
86305;DHT22;76964;49.316;7.118;2024-03-08T06:52:44;17.40;72.80
86305;DHT22;76964;49.316;7.118;2024-03-08T06:55:17;17.40;72.80
86305;DHT22;76964;49.316;7.118;2024-03-08T06:57:45;17.40;73.00
86305;DHT22;76964;49.316;7.118;2024-03-08T07:00:15;17.40;73.00
86305;DHT22;76964;49.316;7.118;2024-03-08T07:02:48;17.40;73.30
86305;DHT22;76964;49.316;7.118;2024-03-08T07:05:16;17.50;73.20
86305;DHT22;76964;49.316;7.118;2024-03-08T07:07:45;17.60;72.90
86305;DHT22;76964;49.316;7.118;2024-03-08T07:10:15;17.60;72.40
86305;DHT22;76964;49.316;7.118;2024-03-08T07:12:44;17.60;72.10
86305;DHT22;76964;49.316;7.118;2024-03-08T07:15:12;17.60;72.20
86305;DHT22;76964;49.316;7.118;2024-03-08T07:17:43;17.60;72.60
86305;DHT22;76964;49.316;7.118;2024-03-08T07:20:12;17.60;72.40
86305;DHT22;76964;49.316;7.118;2024-03-08T07:22:41;17.50;72.40
86305;DHT22;76964;49.316;7.118;2024-03-08T07:25:13;17.50;72.50
86305;DHT22;76964;49.316;7.118;2024-03-08T07:27:48;17.50;72.70
86305;DHT22;76964;49.316;7.118;2024-03-08T07:30:16;17.40;72.70
86305;DHT22;76964;49.316;7.118;2024-03-08T07:33:00;17.40;73.00
86305;DHT22;76964;49.316;7.118;2024-03-08T07:35:29;17.40;73.40
86305;DHT22;76964;49.316;7.118;2024-03-08T07:37:57;17.40;72.90
86305;DHT22;76964;49.316;7.118;2024-03-08T07:40:26;17.40;72.90
86305;DHT22;76964;49.316;7.118;2024-03-08T07:42:55;17.40;73.00
86305;DHT22;76964;49.316;7.118;2024-03-08T07:45:23;17.30;72.90
86305;DHT22;76964;49.316;7.118;2024-03-08T07:47:52;17.30;73.20
86305;DHT22;76964;49.316;7.118;2024-03-08T07:50:21;17.40;72.80
86305;DHT22;76964;49.316;7.118;2024-03-08T07:52:49;17.40;73.00
86305;DHT22;76964;49.316;7.118;2024-03-08T07:55:18;17.40;73.00
86305;DHT22;76964;49.316;7.118;2024-03-08T07:57:46;17.30;72.90
86305;DHT22;76964;49.316;7.118;2024-03-08T08:00:16;17.30;73.00
86305;DHT22;76964;49.316;7.118;2024-03-08T08:02:45;17.30;73.20
86305;DHT22;76964;49.316;7.118;2024-03-08T08:05:13;17.40;73.20
86305;DHT22;76964;49.316;7.118;2024-03-08T08:07:44;17.50;73.00
86305;DHT22;76964;49.316;7.118;2024-03-08T08:10:15;17.60;72.50
86305;DHT22;76964;49.316;7.118;2024-03-08T08:12:45;17.60;72.10
86305;DHT22;76964;49.316;7.118;2024-03-08T08:15:14;17.50;72.20
86305;DHT22;76964;49.316;7.118;2024-03-08T08:17:42;17.50;72.60
86305;DHT22;76964;49.316;7.118;2024-03-08T08:20:11;17.50;72.30
86305;DHT22;76964;49.316;7.118;2024-03-08T08:22:40;17.50;73.00
86305;DHT22;76964;49.316;7.118;2024-03-08T08:25:11;17.50;72.50
86305;DHT22;76964;49.316;7.118;2024-03-08T08:27:40;17.40;72.50
86305;DHT22;76964;49.316;7.118;2024-03-08T08:30:10;17.40;72.70
86305;DHT22;76964;49.316;7.118;2024-03-08T08:32:38;17.40;72.90
86305;DHT22;76964;49.316;7.118;2024-03-08T08:35:07;17.40;72.60
86305;DHT22;76964;49.316;7.118;2024-03-08T08:37:38;17.40;72.80
86305;DHT22;76964;49.316;7.118;2024-03-08T08:40:08;17.40;72.80
86305;DHT22;76964;49.316;7.118;2024-03-08T08:42:38;17.30;72.90
86305;DHT22;76964;49.316;7.118;2024-03-08T08:45:07;17.30;73.60
86305;DHT22;76964;49.316;7.118;2024-03-08T08:47:43;17.30;73.20
86305;DHT22;76964;49.316;7.118;2024-03-08T08:50:13;17.30;73.20
86305;DHT22;76964;49.316;7.118;2024-03-08T08:52:41;17.40;73.00
86305;DHT22;76964;49.316;7.118;2024-03-08T08:55:11;17.50;72.50
86305;DHT22;76964;49.316;7.118;2024-03-08T08:57:42;17.50;72.50
86305;DHT22;76964;49.316;7.118;2024-03-08T09:00:12;17.50;72.50
86305;DHT22;76964;49.316;7.118;2024-03-08T09:02:42;17.40;72.60
86305;DHT22;76964;49.316;7.118;2024-03-08T09:05:11;17.40;72.50
86305;DHT22;76964;49.316;7.118;2024-03-08T09:07:39;17.40;72.50
86305;DHT22;76964;49.316;7.118;2024-03-08T09:10:07;17.40;72.70
86305;DHT22;76964;49.316;7.118;2024-03-08T09:12:39;17.40;72.80
86305;DHT22;76964;49.316;7.118;2024-03-08T09:15:09;17.40;72.90
86305;DHT22;76964;49.316;7.118;2024-03-08T09:17:39;17.30;72.90
86305;DHT22;76964;49.316;7.118;2024-03-08T09:20:10;17.30;72.80
86305;DHT22;76964;49.316;7.118;2024-03-08T09:22:43;17.30;72.90
86305;DHT22;76964;49.316;7.118;2024-03-08T09:25:12;17.30;72.90
86305;DHT22;76964;49.316;7.118;2024-03-08T09:27:40;17.30;73.00
86305;DHT22;76964;49.316;7.118;2024-03-08T09:30:10;17.30;73.10
86305;DHT22;76964;49.316;7.118;2024-03-08T09:32:40;17.30;73.10
86305;DHT22;76964;49.316;7.118;2024-03-08T09:35:10;17.30;73.70
86305;DHT22;76964;49.316;7.118;2024-03-08T09:37:38;17.30;73.00
86305;DHT22;76964;49.316;7.118;2024-03-08T09:40:07;17.30;73.20
86305;DHT22;76964;49.316;7.118;2024-03-08T09:42:37;17.30;73.00
86305;DHT22;76964;49.316;7.118;2024-03-08T09:45:09;17.30;72.80
86305;DHT22;76964;49.316;7.118;2024-03-08T09:47:39;17.30;72.70
86305;DHT22;76964;49.316;7.118;2024-03-08T09:50:09;17.30;72.90
86305;DHT22;76964;49.316;7.118;2024-03-08T09:52:39;17.40;72.70
86305;DHT22;76964;49.316;7.118;2024-03-08T09:55:09;17.50;73.20
86305;DHT22;76964;49.316;7.118;2024-03-08T09:57:38;17.50;72.10
86305;DHT22;76964;49.316;7.118;2024-03-08T10:00:09;17.50;72.20
86305;DHT22;76964;49.316;7.118;2024-03-08T10:02:51;17.50;72.30
86305;DHT22;76964;49.316;7.118;2024-03-08T10:05:20;17.50;72.60
86305;DHT22;76964;49.316;7.118;2024-03-08T10:07:49;17.50;72.50
86305;DHT22;76964;49.316;7.118;2024-03-08T10:10:18;17.40;72.50
86305;DHT22;76964;49.316;7.118;2024-03-08T10:12:46;17.40;72.60
86305;DHT22;76964;49.316;7.118;2024-03-08T10:15:17;17.40;72.70
86305;DHT22;76964;49.316;7.118;2024-03-08T10:17:47;17.40;73.50
86305;DHT22;76964;49.316;7.118;2024-03-08T10:20:16;17.40;72.80
86305;DHT22;76964;49.316;7.118;2024-03-08T10:22:44;17.40;72.80
86305;DHT22;76964;49.316;7.118;2024-03-08T10:25:32;17.40;73.00
86305;DHT22;76964;49.316;7.118;2024-03-08T10:28:03;17.40;73.00
86305;DHT22;76964;49.316;7.118;2024-03-08T10:30:33;17.40;73.10
86305;DHT22;76964;49.316;7.118;2024-03-08T10:33:01;17.40;73.20
86305;DHT22;76964;49.316;7.118;2024-03-08T10:35:32;17.40;73.20
86305;DHT22;76964;49.316;7.118;2024-03-08T10:38:01;17.40;73.10
86305;DHT22;76964;49.316;7.118;2024-03-08T10:40:35;17.50;72.90
86305;DHT22;76964;49.316;7.118;2024-03-08T10:43:14;17.60;72.50
86305;DHT22;76964;49.316;7.118;2024-03-08T10:45:47;17.60;72.60
86305;DHT22;76964;49.316;7.118;2024-03-08T10:48:27;17.60;72.80
86305;DHT22;76964;49.316;7.118;2024-03-08T10:51:04;17.50;72.80
86305;DHT22;76964;49.316;7.118;2024-03-08T10:53:34;17.50;72.80
86305;DHT22;76964;49.316;7.118;2024-03-08T10:56:04;17.50;72.90
86305;DHT22;76964;49.316;7.118;2024-03-08T10:58:35;17.50;73.10
86305;DHT22;76964;49.316;7.118;2024-03-08T11:01:06;17.50;73.20
86305;DHT22;76964;49.316;7.118;2024-03-08T11:03:45;17.50;73.30
86305;DHT22;76964;49.316;7.118;2024-03-08T11:06:17;17.40;73.20
86305;DHT22;76964;49.316;7.118;2024-03-08T11:08:49;17.40;73.30
86305;DHT22;76964;49.316;7.118;2024-03-08T11:11:25;17.40;73.30
86305;DHT22;76964;49.316;7.118;2024-03-08T11:14:03;17.40;73.40
86305;DHT22;76964;49.316;7.118;2024-03-08T11:16:40;17.40;73.40
86305;DHT22;76964;49.316;7.118;2024-03-08T11:19:27;17.40;73.50
86305;DHT22;76964;49.316;7.118;2024-03-08T11:22:02;17.40;73.40
86305;DHT22;76964;49.316;7.118;2024-03-08T11:24:38;17.50;73.40
86305;DHT22;76964;49.316;7.118;2024-03-08T11:27:07;17.50;73.00
86305;DHT22;76964;49.316;7.118;2024-03-08T11:29:37;17.60;73.10
86305;DHT22;76964;49.316;7.118;2024-03-08T11:32:12;17.60;73.10
86305;DHT22;76964;49.316;7.118;2024-03-08T11:34:43;17.60;73.20
86305;DHT22;76964;49.316;7.118;2024-03-08T11:37:14;17.60;73.10
86305;DHT22;76964;49.316;7.118;2024-03-08T11:39:47;17.60;73.10
86305;DHT22;76964;49.316;7.118;2024-03-08T11:42:16;17.60;73.20
86305;DHT22;76964;49.316;7.118;2024-03-08T11:44:45;17.50;73.20
86305;DHT22;76964;49.316;7.118;2024-03-08T11:47:16;17.50;73.20
86305;DHT22;76964;49.316;7.118;2024-03-08T11:49:44;17.50;73.30
86305;DHT22;76964;49.316;7.118;2024-03-08T11:52:16;17.50;73.30
86305;DHT22;76964;49.316;7.118;2024-03-08T11:54:51;17.50;73.40
86305;DHT22;76964;49.316;7.118;2024-03-08T11:57:21;17.50;73.50
86305;DHT22;76964;49.316;7.118;2024-03-08T11:59:50;17.50;73.50
86305;DHT22;76964;49.316;7.118;2024-03-08T12:02:25;17.50;73.50
86305;DHT22;76964;49.316;7.118;2024-03-08T12:04:58;17.50;73.50
86305;DHT22;76964;49.316;7.118;2024-03-08T12:07:30;17.50;73.40
86305;DHT22;76964;49.316;7.118;2024-03-08T12:10:15;17.50;73.20
86305;DHT22;76964;49.316;7.118;2024-03-08T12:12:45;17.60;72.90
86305;DHT22;76964;49.316;7.118;2024-03-08T12:15:15;17.60;72.80
86305;DHT22;76964;49.316;7.118;2024-03-08T12:17:47;17.70;73.00
86305;DHT22;76964;49.316;7.118;2024-03-08T12:20:17;17.70;73.00
86305;DHT22;76964;49.316;7.118;2024-03-08T12:22:45;17.60;72.90
86305;DHT22;76964;49.316;7.118;2024-03-08T12:25:13;17.60;73.60
86305;DHT22;76964;49.316;7.118;2024-03-08T12:27:43;17.60;73.00
86305;DHT22;76964;49.316;7.118;2024-03-08T12:30:18;17.60;73.10
86305;DHT22;76964;49.316;7.118;2024-03-08T12:32:51;17.60;73.20
86305;DHT22;76964;49.316;7.118;2024-03-08T12:35:21;17.60;73.30
86305;DHT22;76964;49.316;7.118;2024-03-08T12:37:51;17.60;73.30
86305;DHT22;76964;49.316;7.118;2024-03-08T12:40:26;17.60;73.30
86305;DHT22;76964;49.316;7.118;2024-03-08T12:42:55;17.60;73.40
86305;DHT22;76964;49.316;7.118;2024-03-08T12:45:23;17.60;73.40
86305;DHT22;76964;49.316;7.118;2024-03-08T12:47:53;17.60;73.40
86305;DHT22;76964;49.316;7.118;2024-03-08T12:50:22;17.50;73.50
86305;DHT22;76964;49.316;7.118;2024-03-08T12:52:51;17.50;73.50
86305;DHT22;76964;49.316;7.118;2024-03-08T12:55:20;17.50;73.30
86305;DHT22;76964;49.316;7.118;2024-03-08T12:57:48;17.60;73.10
86305;DHT22;76964;49.316;7.118;2024-03-08T13:00:16;17.60;73.20
86305;DHT22;76964;49.316;7.118;2024-03-08T13:02:47;17.60;73.20
86305;DHT22;76964;49.316;7.118;2024-03-08T13:05:18;17.60;73.20
86305;DHT22;76964;49.316;7.118;2024-03-08T13:07:47;17.60;74.00
86305;DHT22;76964;49.316;7.118;2024-03-08T13:10:16;17.60;73.20
86305;DHT22;76964;49.316;7.118;2024-03-08T13:12:47;17.60;73.50
86305;DHT22;76964;49.316;7.118;2024-03-08T13:15:20;17.60;73.30
86305;DHT22;76964;49.316;7.118;2024-03-08T13:17:49;17.60;73.40
86305;DHT22;76964;49.316;7.118;2024-03-08T13:20:19;17.60;73.50
86305;DHT22;76964;49.316;7.118;2024-03-08T13:22:59;17.60;73.50
86305;DHT22;76964;49.316;7.118;2024-03-08T13:25:28;17.60;73.30
86305;DHT22;76964;49.316;7.118;2024-03-08T13:27:57;17.60;73.10
86305;DHT22;76964;49.316;7.118;2024-03-08T13:30:27;17.70;73.10
86305;DHT22;76964;49.316;7.118;2024-03-08T13:32:55;17.60;73.00
86305;DHT22;76964;49.316;7.118;2024-03-08T13:35:25;17.70;73.20
86305;DHT22;76964;49.316;7.118;2024-03-08T13:37:54;17.70;73.30
86305;DHT22;76964;49.316;7.118;2024-03-08T13:40:23;17.60;73.10
86305;DHT22;76964;49.316;7.118;2024-03-08T13:42:51;17.60;73.20
86305;DHT22;76964;49.316;7.118;2024-03-08T13:45:19;17.60;73.30
86305;DHT22;76964;49.316;7.118;2024-03-08T13:47:52;17.60;73.30
86305;DHT22;76964;49.316;7.118;2024-03-08T13:50:21;17.60;73.50
86305;DHT22;76964;49.316;7.118;2024-03-08T13:52:52;17.60;73.50
86305;DHT22;76964;49.316;7.118;2024-03-08T13:55:23;17.60;73.50
86305;DHT22;76964;49.316;7.118;2024-03-08T13:57:52;17.60;73.50
86305;DHT22;76964;49.316;7.118;2024-03-08T14:00:21;17.60;73.60
86305;DHT22;76964;49.316;7.118;2024-03-08T14:02:52;17.60;73.60
86305;DHT22;76964;49.316;7.118;2024-03-08T14:05:21;17.50;73.50
86305;DHT22;76964;49.316;7.118;2024-03-08T14:07:49;17.60;73.70
86305;DHT22;76964;49.316;7.118;2024-03-08T14:10:22;17.50;73.50
86305;DHT22;76964;49.316;7.118;2024-03-08T14:12:51;17.60;73.30
86305;DHT22;76964;49.316;7.118;2024-03-08T14:15:19;17.70;73.10
86305;DHT22;76964;49.316;7.118;2024-03-08T14:17:52;17.70;73.10
86305;DHT22;76964;49.316;7.118;2024-03-08T14:20:21;17.70;73.10
86305;DHT22;76964;49.316;7.118;2024-03-08T14:22:52;17.70;73.20
86305;DHT22;76964;49.316;7.118;2024-03-08T14:25:23;17.70;73.20
86305;DHT22;76964;49.316;7.118;2024-03-08T14:27:53;17.60;73.10
86305;DHT22;76964;49.316;7.118;2024-03-08T14:30:25;17.60;73.20
86305;DHT22;76964;49.316;7.118;2024-03-08T14:33:05;17.60;73.20
86305;DHT22;76964;49.316;7.118;2024-03-08T14:35:36;17.60;73.20
86305;DHT22;76964;49.316;7.118;2024-03-08T14:38:04;17.60;73.30
86305;DHT22;76964;49.316;7.118;2024-03-08T14:40:37;17.60;73.30
86305;DHT22;76964;49.316;7.118;2024-03-08T14:43:12;17.60;73.30
86305;DHT22;76964;49.316;7.118;2024-03-08T14:45:41;17.60;73.30
86305;DHT22;76964;49.316;7.118;2024-03-08T14:48:09;17.60;73.20
86305;DHT22;76964;49.316;7.118;2024-03-08T14:50:38;17.60;73.30
86305;DHT22;76964;49.316;7.118;2024-03-08T14:53:07;17.60;73.20
86305;DHT22;76964;49.316;7.118;2024-03-08T14:55:37;17.50;73.00
86305;DHT22;76964;49.316;7.118;2024-03-08T14:58:05;17.50;72.90
86305;DHT22;76964;49.316;7.118;2024-03-08T15:00:33;17.50;73.10
86305;DHT22;76964;49.316;7.118;2024-03-08T15:03:02;17.50;73.20
86305;DHT22;76964;49.316;7.118;2024-03-08T15:05:33;17.50;73.20
86305;DHT22;76964;49.316;7.118;2024-03-08T15:08:03;17.50;73.20
86305;DHT22;76964;49.316;7.118;2024-03-08T15:10:40;17.50;73.30
86305;DHT22;76964;49.316;7.118;2024-03-08T15:13:09;17.50;73.30
86305;DHT22;76964;49.316;7.118;2024-03-08T15:15:49;17.60;73.10
86305;DHT22;76964;49.316;7.118;2024-03-08T15:18:23;17.70;72.70
86305;DHT22;76964;49.316;7.118;2024-03-08T15:20:55;17.70;72.70
86305;DHT22;76964;49.316;7.118;2024-03-08T15:23:25;17.70;72.80
86305;DHT22;76964;49.316;7.118;2024-03-08T15:25:54;17.60;72.90
86305;DHT22;76964;49.316;7.118;2024-03-08T15:28:23;17.60;72.90
86305;DHT22;76964;49.316;7.118;2024-03-08T15:30:57;17.60;72.90
86305;DHT22;76964;49.316;7.118;2024-03-08T15:33:33;17.60;73.00
86305;DHT22;76964;49.316;7.118;2024-03-08T15:36:01;17.60;73.20
86305;DHT22;76964;49.316;7.118;2024-03-08T15:38:35;17.50;73.20
86305;DHT22;76964;49.316;7.118;2024-03-08T15:41:05;17.50;73.20
86305;DHT22;76964;49.316;7.118;2024-03-08T15:43:36;17.50;73.20
86305;DHT22;76964;49.316;7.118;2024-03-08T15:46:06;17.50;73.20